sensor_id;sensor_type;location;lat;lon;timestamp;pressure;altitude;pressure_sealevel;temperature;humidity
10145;BME280;5113;41.822;23.564;2023-04-03T00:01:37;-11028.09;;;3.39;100.00
10145;BME280;5113;41.822;23.564;2023-04-03T00:04:42;-11035.25;;;3.65;100.00
10145;BME280;5113;41.822;23.564;2023-04-03T00:07:49;-11036.66;;;3.70;100.00
10145;BME280;5113;41.822;23.564;2023-04-03T00:10:55;-11050.81;;;4.21;100.00
10145;BME280;5113;41.822;23.564;2023-04-03T00:14:03;-11073.12;;;5.02;100.00
10145;BME280;5113;41.822;23.564;2023-04-03T00:17:09;-11080.16;;;5.27;100.00
10145;BME280;5113;41.822;23.564;2023-04-03T00:20:15;-11082.81;;;5.37;100.00
10145;BME280;5113;41.822;23.564;2023-04-03T00:23:22;-11084.78;;;5.44;100.00
10145;BME280;5113;41.822;23.564;2023-04-03T00:26:29;-11082.69;;;5.37;100.00
10145;BME280;5113;41.822;23.564;2023-04-03T00:29:36;-11083.38;;;5.39;100.00
10145;BME280;5113;41.822;23.564;2023-04-03T00:32:43;-11050.13;;;4.19;100.00
10145;BME280;5113;41.822;23.564;2023-04-03T00:35:49;-11042.81;;;3.92;100.00
10145;BME280;5113;41.822;23.564;2023-04-03T00:38:56;-11064.72;;;4.72;100.00
10145;BME280;5113;41.822;23.564;2023-04-03T00:42:02;-11054.03;;;4.33;100.00
10145;BME280;5113;41.822;23.564;2023-04-03T00:45:32;-11042.41;;;3.91;100.00
10145;BME280;5113;41.822;23.564;2023-04-03T00:48:40;-11045.22;;;4.01;100.00
10145;BME280;5113;41.822;23.564;2023-04-03T00:51:47;-11037.34;;;3.73;100.00
10145;BME280;5113;41.822;23.564;2023-04-03T00:54:56;-11040.16;;;3.83;100.00
10145;BME280;5113;41.822;23.564;2023-04-03T00:58:03;-11042.53;;;3.91;100.00
10145;BME280;5113;41.822;23.564;2023-04-03T01:01:16;-11050.97;;;4.22;100.00
10145;BME280;5113;41.822;23.564;2023-04-03T01:04:28;-11059.09;;;4.51;100.00
10145;BME280;5113;41.822;23.564;2023-04-03T01:07:36;-11041.28;;;3.87;100.00
10145;BME280;5113;41.822;23.564;2023-04-03T01:10:43;-11031.88;;;3.53;100.00
10145;BME280;5113;41.822;23.564;2023-04-03T01:13:49;-11035.53;;;3.66;100.00
10145;BME280;5113;41.822;23.564;2023-04-03T01:16:57;-11047.31;;;4.09;100.00
10145;BME280;5113;41.822;23.564;2023-04-03T01:20:42;-11044.09;;;3.97;100.00
10145;BME280;5113;41.822;23.564;2023-04-03T01:24:00;-11062.47;;;4.63;100.00
10145;BME280;5113;41.822;23.564;2023-04-03T01:27:11;-11069.06;;;4.87;100.00
10145;BME280;5113;41.822;23.564;2023-04-03T01:30:21;-11065.28;;;4.74;100.00
10145;BME280;5113;41.822;23.564;2023-04-03T01:33:30;-11071.72;;;4.97;100.00
10145;BME280;5113;41.822;23.564;2023-04-03T01:36:36;-11068.78;;;4.86;100.00
10145;BME280;5113;41.822;23.564;2023-04-03T01:39:42;-11057.41;;;4.45;100.00
10145;BME280;5113;41.822;23.564;2023-04-03T01:42:48;-11053.19;;;4.30;100.00
10145;BME280;5113;41.822;23.564;2023-04-03T01:45:54;-11042.81;;;3.92;100.00
10145;BME280;5113;41.822;23.564;2023-04-03T01:49:02;-11056.16;;;4.41;100.00
10145;BME280;5113;41.822;23.564;2023-04-03T01:52:08;-11058.81;;;4.50;100.00
10145;BME280;5113;41.822;23.564;2023-04-03T01:55:15;-11061.06;;;4.58;100.00
10145;BME280;5113;41.822;23.564;2023-04-03T01:58:21;-11069.91;;;4.90;100.00
10145;BME280;5113;41.822;23.564;2023-04-03T02:01:27;-11071.44;;;4.96;100.00
10145;BME280;5113;41.822;23.564;2023-04-03T02:04:35;-11071.03;;;4.94;100.00
10145;BME280;5113;41.822;23.564;2023-04-03T02:07:41;-11071.44;;;4.96;100.00
10145;BME280;5113;41.822;23.564;2023-04-03T02:10:48;-11072.84;;;5.01;100.00
10145;BME280;5113;41.822;23.564;2023-04-03T02:13:55;-11074.81;;;5.08;100.00
10145;BME280;5113;41.822;23.564;2023-04-03T02:17:02;-11076.50;;;5.14;100.00
10145;BME280;5113;41.822;23.564;2023-04-03T02:20:14;-11075.25;;;5.10;100.00
10145;BME280;5113;41.822;23.564;2023-04-03T02:23:20;-11079.31;;;5.24;100.00
10145;BME280;5113;41.822;23.564;2023-04-03T02:26:27;-11072.84;;;5.01;100.00
10145;BME280;5113;41.822;23.564;2023-04-03T02:29:33;-11069.34;;;4.88;100.00
10145;BME280;5113;41.822;23.564;2023-04-03T02:32:39;-11073.00;;;5.02;100.00
10145;BME280;5113;41.822;23.564;2023-04-03T02:35:52;-11062.03;;;4.62;100.00
10145;BME280;5113;41.822;23.564;2023-04-03T02:39:00;-11059.81;;;4.54;100.00
10145;BME280;5113;41.822;23.564;2023-04-03T02:42:06;-11047.88;;;4.11;100.00
10145;BME280;5113;41.822;23.564;2023-04-03T02:45:13;-11056.56;;;4.42;100.00
10145;BME280;5113;41.822;23.564;2023-04-03T02:48:19;-11048.44;;;4.13;100.00
10145;BME280;5113;41.822;23.564;2023-04-03T02:51:27;-11042.97;;;3.93;100.00
10145;BME280;5113;41.822;23.564;2023-04-03T02:54:35;-11032.44;;;3.55;100.00
10145;BME280;5113;41.822;23.564;2023-04-03T02:57:42;-11023.88;;;3.24;100.00
10145;BME280;5113;41.822;23.564;2023-04-03T03:00:48;-11017.00;;;2.99;100.00
10145;BME280;5113;41.822;23.564;2023-04-03T03:03:54;-11024.03;;;3.24;100.00
10145;BME280;5113;41.822;23.564;2023-04-03T03:07:02;-11009.72;;;2.73;100.00
10145;BME280;5113;41.822;23.564;2023-04-03T03:10:09;-11000.31;;;2.39;100.00
10145;BME280;5113;41.822;23.564;2023-04-03T03:13:15;-11001.16;;;2.42;100.00
10145;BME280;5113;41.822;23.564;2023-04-03T03:16:21;-11020.09;;;3.10;100.00
10145;BME280;5113;41.822;23.564;2023-04-03T03:22:35;-11033.56;;;3.59;100.00
10145;BME280;5113;41.822;23.564;2023-04-03T03:25:41;-11043.66;;;3.95;100.00
10145;BME280;5113;41.822;23.564;2023-04-03T03:28:48;-11038.47;;;3.77;100.00
10145;BME280;5113;41.822;23.564;2023-04-03T03:31:54;-11043.38;;;3.94;100.00
10145;BME280;5113;41.822;23.564;2023-04-03T03:35:00;-11052.06;;;4.26;100.00
10145;BME280;5113;41.822;23.564;2023-04-03T03:38:08;-11055.72;;;4.39;100.00
10145;BME280;5113;41.822;23.564;2023-04-03T03:41:14;-11054.75;;;4.36;100.00
10145;BME280;5113;41.822;23.564;2023-04-03T03:44:20;-11047.44;;;4.09;100.00
10145;BME280;5113;41.822;23.564;2023-04-03T03:47:27;-11050.81;;;4.21;100.00
10145;BME280;5113;41.822;23.564;2023-04-03T03:50:33;-11047.31;;;4.09;100.00
10145;BME280;5113;41.822;23.564;2023-04-03T03:53:41;-11054.59;;;4.35;100.00
10145;BME280;5113;41.822;23.564;2023-04-03T03:56:48;-11049.13;;;4.15;100.00
10145;BME280;5113;41.822;23.564;2023-04-03T03:59:54;-11042.53;;;3.91;100.00
10145;BME280;5113;41.822;23.564;2023-04-03T04:03:01;-11041.13;;;3.86;100.00
10145;BME280;5113;41.822;23.564;2023-04-03T04:06:07;-11042.81;;;3.92;100.00
10145;BME280;5113;41.822;23.564;2023-04-03T04:09:15;-11045.34;;;4.02;100.00
10145;BME280;5113;41.822;23.564;2023-04-03T04:12:21;-11042.81;;;3.92;100.00
10145;BME280;5113;41.822;23.564;2023-04-03T04:15:27;-11041.00;;;3.86;100.00
10145;BME280;5113;41.822;23.564;2023-04-03T04:18:34;-11029.34;;;3.44;100.00
10145;BME280;5113;41.822;23.564;2023-04-03T04:21:40;-11025.84;;;3.31;100.00
10145;BME280;5113;41.822;23.564;2023-04-03T04:24:47;-11024.16;;;3.25;100.00
10145;BME280;5113;41.822;23.564;2023-04-03T04:27:54;-11038.59;;;3.77;100.00
10145;BME280;5113;41.822;23.564;2023-04-03T04:31:00;-11038.34;;;3.76;100.00
10145;BME280;5113;41.822;23.564;2023-04-03T04:34:06;-11016.44;;;2.97;100.00
10145;BME280;5113;41.822;23.564;2023-04-03T04:37:12;-11014.19;;;2.89;100.00
10145;BME280;5113;41.822;23.564;2023-04-03T04:40:21;-11033.41;;;3.58;100.00
10145;BME280;5113;41.822;23.564;2023-04-03T04:43:27;-11013.66;;;2.87;100.00
10145;BME280;5113;41.822;23.564;2023-04-03T04:46:33;-11009.56;;;2.72;100.00
10145;BME280;5113;41.822;23.564;2023-04-03T04:49:59;-11012.25;;;2.82;100.00
10145;BME280;5113;41.822;23.564;2023-04-03T04:53:05;-11001.59;;;2.43;100.00
10145;BME280;5113;41.822;23.564;2023-04-03T04:56:13;-11015.03;;;2.92;100.00
10145;BME280;5113;41.822;23.564;2023-04-03T04:59:19;-11012.53;;;2.83;100.00
10145;BME280;5113;41.822;23.564;2023-04-03T05:02:26;-11029.34;;;3.44;100.00
10145;BME280;5113;41.822;23.564;2023-04-03T05:05:32;-11037.34;;;3.73;100.00
10145;BME280;5113;41.822;23.564;2023-04-03T05:08:39;-11053.91;;;4.32;100.00
10145;BME280;5113;41.822;23.564;2023-04-03T05:11:46;-11051.78;;;4.25;100.00
10145;BME280;5113;41.822;23.564;2023-04-03T05:14:53;-11062.75;;;4.64;100.00
10145;BME280;5113;41.822;23.564;2023-04-03T05:17:59;-11072.84;;;5.01;100.00
10145;BME280;5113;41.822;23.564;2023-04-03T05:21:05;-11067.94;;;4.83;100.00
10145;BME280;5113;41.822;23.564;2023-04-03T05:24:12;-11043.09;;;3.93;100.00
10145;BME280;5113;41.822;23.564;2023-04-03T05:27:19;-11049.28;;;4.16;100.00
10145;BME280;5113;41.822;23.564;2023-04-03T05:30:26;-11052.63;;;4.28;100.00
10145;BME280;5113;41.822;23.564;2023-04-03T05:33:32;-11062.75;;;4.64;100.00
10145;BME280;5113;41.822;23.564;2023-04-03T05:36:38;-11065.97;;;4.76;100.00
10145;BME280;5113;41.822;23.564;2023-04-03T05:39:44;-11070.31;;;4.92;100.00
10145;BME280;5113;41.822;23.564;2023-04-03T05:42:52;-11060.50;;;4.56;100.00
10145;BME280;5113;41.822;23.564;2023-04-03T05:45:58;-11083.50;;;5.40;100.00
10145;BME280;5113;41.822;23.564;2023-04-03T05:49:05;-11093.91;;;5.77;100.00
10145;BME280;5113;41.822;23.564;2023-04-03T05:52:19;-11104.03;;;6.14;100.00
10145;BME280;5113;41.822;23.564;2023-04-03T05:55:26;-11109.63;;;6.34;99.84
10145;BME280;5113;41.822;23.564;2023-04-03T05:58:34;-11109.91;;;6.35;97.75
10145;BME280;5113;41.822;23.564;2023-04-03T06:01:40;-11107.25;;;6.25;98.93
10145;BME280;5113;41.822;23.564;2023-04-03T06:04:46;-11118.34;;;6.66;96.46
10145;BME280;5113;41.822;23.564;2023-04-03T06:07:53;-11117.09;;;6.61;95.23
10145;BME280;5113;41.822;23.564;2023-04-03T06:11:00;-11112.88;;;6.46;96.13
10145;BME280;5113;41.822;23.564;2023-04-03T06:14:08;-11107.13;;;6.25;97.57
10145;BME280;5113;41.822;23.564;2023-04-03T06:17:15;-11093.22;;;5.75;100.00
10145;BME280;5113;41.822;23.564;2023-04-03T06:20:23;-11094.59;;;5.80;100.00
10145;BME280;5113;41.822;23.564;2023-04-03T06:23:29;-11097.41;;;5.90;100.00
10145;BME280;5113;41.822;23.564;2023-04-03T06:26:35;-11093.63;;;5.76;100.00
10145;BME280;5113;41.822;23.564;2023-04-03T06:29:43;-11104.16;;;6.14;100.00
10145;BME280;5113;41.822;23.564;2023-04-03T06:32:49;-11116.81;;;6.60;100.00
10145;BME280;5113;41.822;23.564;2023-04-03T06:35:58;-11130.13;;;7.08;98.52
10145;BME280;5113;41.822;23.564;2023-04-03T06:39:05;-11129.59;;;7.06;99.29
10145;BME280;5113;41.822;23.564;2023-04-03T06:42:12;-11121.16;;;6.76;96.27
10145;BME280;5113;41.822;23.564;2023-04-03T06:45:20;-11127.34;;;6.98;96.81
10145;BME280;5113;41.822;23.564;2023-04-03T06:48:26;-11127.91;;;7.00;95.91
10145;BME280;5113;41.822;23.564;2023-04-03T06:51:32;-11123.97;;;6.86;96.21
10145;BME280;5113;41.822;23.564;2023-04-03T06:54:39;-11139.41;;;7.42;92.65
10145;BME280;5113;41.822;23.564;2023-04-03T06:57:45;-11143.50;;;7.56;90.53
10145;BME280;5113;41.822;23.564;2023-04-03T07:00:53;-11125.22;;;6.90;94.09
10145;BME280;5113;41.822;23.564;2023-04-03T07:03:59;-11151.34;;;7.85;92.75
10145;BME280;5113;41.822;23.564;2023-04-03T07:07:06;-11147.84;;;7.72;90.71
10145;BME280;5113;41.822;23.564;2023-04-03T07:10:12;-11153.31;;;7.92;89.27
10145;BME280;5113;41.822;23.564;2023-04-03T07:13:18;-11147.00;;;7.69;91.21
10145;BME280;5113;41.822;23.564;2023-04-03T07:16:25;-11147.56;;;7.71;89.93
10145;BME280;5113;41.822;23.564;2023-04-03T07:19:31;-11160.91;;;8.19;88.86
10145;BME280;5113;41.822;23.564;2023-04-03T07:22:37;-11155.16;;;7.99;88.15
10145;BME280;5113;41.822;23.564;2023-04-03T07:25:44;-11159.38;;;8.14;84.93
10145;BME280;5113;41.822;23.564;2023-04-03T07:28:51;-11147.56;;;7.71;87.62
10145;BME280;5113;41.822;23.564;2023-04-03T07:31:58;-11162.75;;;8.26;84.50
10145;BME280;5113;41.822;23.564;2023-04-03T07:35:05;-11169.91;;;8.52;81.37
10145;BME280;5113;41.822;23.564;2023-04-03T07:38:11;-11176.50;;;8.76;80.52
10145;BME280;5113;41.822;23.564;2023-04-03T07:41:19;-11174.53;;;8.69;80.50
10145;BME280;5113;41.822;23.564;2023-04-03T07:44:27;-11183.69;;;9.02;78.41
10145;BME280;5113;41.822;23.564;2023-04-03T07:47:35;-11173.28;;;8.64;80.22
10145;BME280;5113;41.822;23.564;2023-04-03T07:50:42;-11176.22;;;8.75;81.67
10145;BME280;5113;41.822;23.564;2023-04-03T07:53:48;-11160.50;;;8.18;88.00
10145;BME280;5113;41.822;23.564;2023-04-03T07:56:55;-11165.28;;;8.35;88.52
10145;BME280;5113;41.822;23.564;2023-04-03T08:00:03;-11157.13;;;8.06;89.66
10145;BME280;5113;41.822;23.564;2023-04-03T08:03:11;-11167.25;;;8.42;88.59
10145;BME280;5113;41.822;23.564;2023-04-03T08:06:18;-11171.03;;;8.56;88.31
10145;BME280;5113;41.822;23.564;2023-04-03T08:09:33;-11156.84;;;8.05;90.39
10145;BME280;5113;41.822;23.564;2023-04-03T08:12:39;-11169.91;;;8.52;86.95
10145;BME280;5113;41.822;23.564;2023-04-03T08:15:46;-11163.31;;;8.28;85.82
10145;BME280;5113;41.822;23.564;2023-04-03T08:18:54;-11188.88;;;9.20;81.06
10145;BME280;5113;41.822;23.564;2023-04-03T08:22:01;-11172.88;;;8.63;87.22
10145;BME280;5113;41.822;23.564;2023-04-03T08:25:08;-11169.22;;;8.49;90.10
10145;BME280;5113;41.822;23.564;2023-04-03T08:28:15;-11180.16;;;8.89;90.72
10145;BME280;5113;41.822;23.564;2023-04-03T08:31:21;-11180.44;;;8.90;91.06
10145;BME280;5113;41.822;23.564;2023-04-03T08:34:29;-11177.63;;;8.80;92.50
10145;BME280;5113;41.822;23.564;2023-04-03T08:37:36;-11182.56;;;8.98;92.64
10145;BME280;5113;41.822;23.564;2023-04-03T08:40:45;-11173.84;;;8.66;97.97
10145;BME280;5113;41.822;23.564;2023-04-03T08:44:00;-11182.00;;;8.96;95.60
10145;BME280;5113;41.822;23.564;2023-04-03T08:47:18;-11183.25;;;9.00;95.28
10145;BME280;5113;41.822;23.564;2023-04-03T08:50:33;-11193.81;;;9.38;94.64
10145;BME280;5113;41.822;23.564;2023-04-03T08:53:45;-11189.88;;;9.24;95.69
10145;BME280;5113;41.822;23.564;2023-04-03T08:56:55;-11191.41;;;9.30;96.62
10145;BME280;5113;41.822;23.564;2023-04-03T09:00:05;-11194.22;;;9.40;97.38
10145;BME280;5113;41.822;23.564;2023-04-03T09:03:14;-11188.59;;;9.19;98.91
10145;BME280;5113;41.822;23.564;2023-04-03T09:06:25;-11190.56;;;9.26;100.00
10145;BME280;5113;41.822;23.564;2023-04-03T09:09:36;-11188.88;;;9.20;100.00
10145;BME280;5113;41.822;23.564;2023-04-03T09:12:51;-11180.16;;;8.89;100.00
10145;BME280;5113;41.822;23.564;2023-04-03T09:16:02;-11187.19;;;9.14;100.00
10145;BME280;5113;41.822;23.564;2023-04-03T09:19:15;-11177.22;;;8.78;100.00
10145;BME280;5113;41.822;23.564;2023-04-03T09:22:28;-11182.41;;;8.97;100.00
10145;BME280;5113;41.822;23.564;2023-04-03T09:25:43;-11179.19;;;8.85;100.00
10145;BME280;5113;41.822;23.564;2023-04-03T09:28:50;-11179.59;;;8.87;100.00
10145;BME280;5113;41.822;23.564;2023-04-03T09:31:59;-11192.53;;;9.34;100.00
10145;BME280;5113;41.822;23.564;2023-04-03T09:35:16;-11188.59;;;9.19;100.00
10145;BME280;5113;41.822;23.564;2023-04-03T09:38:37;-11201.81;;;9.67;100.00
10145;BME280;5113;41.822;23.564;2023-04-03T09:41:57;-11181.00;;;8.92;100.00
10145;BME280;5113;41.822;23.564;2023-04-03T09:45:05;-11195.34;;;9.44;100.00
10145;BME280;5113;41.822;23.564;2023-04-03T09:48:17;-11194.78;;;9.42;100.00
10145;BME280;5113;41.822;23.564;2023-04-03T09:51:25;-11199.00;;;9.57;100.00
10145;BME280;5113;41.822;23.564;2023-04-03T09:54:37;-11192.81;;;9.35;100.00
10145;BME280;5113;41.822;23.564;2023-04-03T09:57:46;-11199.28;;;9.58;100.00
10145;BME280;5113;41.822;23.564;2023-04-03T10:00:58;-11201.69;;;9.67;100.00
10145;BME280;5113;41.822;23.564;2023-04-03T10:04:10;-11202.66;;;9.70;100.00
10145;BME280;5113;41.822;23.564;2023-04-03T10:07:28;-11210.53;;;9.99;100.00
10145;BME280;5113;41.822;23.564;2023-04-03T10:10:37;-11220.09;;;10.33;100.00
10145;BME280;5113;41.822;23.564;2023-04-03T10:13:52;-11218.41;;;10.27;100.00
10145;BME280;5113;41.822;23.564;2023-04-03T10:17:09;-11226.00;;;10.54;100.00
10145;BME280;5113;41.822;23.564;2023-04-03T10:20:27;-11222.91;;;10.43;100.00
10145;BME280;5113;41.822;23.564;2023-04-03T10:23:39;-11204.50;;;9.77;100.00
10145;BME280;5113;41.822;23.564;2023-04-03T10:26:57;-11209.13;;;9.93;100.00
10145;BME280;5113;41.822;23.564;2023-04-03T10:30:18;-11205.63;;;9.81;100.00
10145;BME280;5113;41.822;23.564;2023-04-03T10:33:35;-11201.97;;;9.68;100.00
10145;BME280;5113;41.822;23.564;2023-04-03T10:36:46;-11203.50;;;9.73;100.00
10145;BME280;5113;41.822;23.564;2023-04-03T10:39:59;-11206.88;;;9.85;100.00
10145;BME280;5113;41.822;23.564;2023-04-03T10:43:11;-11206.88;;;9.85;100.00
10145;BME280;5113;41.822;23.564;2023-04-03T10:46:25;-11210.53;;;9.99;100.00
10145;BME280;5113;41.822;23.564;2023-04-03T10:49:44;-11205.19;;;9.79;100.00
10145;BME280;5113;41.822;23.564;2023-04-03T10:53:08;-11208.56;;;9.91;100.00
10145;BME280;5113;41.822;23.564;2023-04-03T10:56:22;-11200.41;;;9.62;100.00
10145;BME280;5113;41.822;23.564;2023-04-03T10:59:36;-11201.81;;;9.67;100.00
10145;BME280;5113;41.822;23.564;2023-04-03T11:02:48;-11203.22;;;9.72;100.00
10145;BME280;5113;41.822;23.564;2023-04-03T11:05:59;-11209.41;;;9.94;100.00
10145;BME280;5113;41.822;23.564;2023-04-03T11:09:16;-11199.84;;;9.60;100.00
10145;BME280;5113;41.822;23.564;2023-04-03T11:12:29;-11196.63;;;9.48;100.00
10145;BME280;5113;41.822;23.564;2023-04-03T11:15:42;-11203.94;;;9.75;100.00
10145;BME280;5113;41.822;23.564;2023-04-03T11:18:52;-11201.53;;;9.66;100.00
10145;BME280;5113;41.822;23.564;2023-04-03T11:22:03;-11208.00;;;9.89;100.00
10145;BME280;5113;41.822;23.564;2023-04-03T11:25:16;-11208.84;;;9.92;100.00
10145;BME280;5113;41.822;23.564;2023-04-03T11:28:26;-11211.09;;;10.01;100.00
10145;BME280;5113;41.822;23.564;2023-04-03T11:31:54;-11205.19;;;9.79;100.00
10145;BME280;5113;41.822;23.564;2023-04-03T11:35:08;-11203.22;;;9.72;100.00
10145;BME280;5113;41.822;23.564;2023-04-03T11:38:21;-11208.28;;;9.90;100.00
10145;BME280;5113;41.822;23.564;2023-04-03T11:41:31;-11212.38;;;10.05;100.00
10145;BME280;5113;41.822;23.564;2023-04-03T11:44:38;-11204.50;;;9.77;100.00
10145;BME280;5113;41.822;23.564;2023-04-03T11:47:48;-11213.34;;;10.09;100.00
10145;BME280;5113;41.822;23.564;2023-04-03T11:50:56;-11202.53;;;9.70;100.00
10145;BME280;5113;41.822;23.564;2023-04-03T11:58:04;-11206.03;;;9.82;100.00
10145;BME280;5113;41.822;23.564;2023-04-03T12:01:43;-11203.09;;;9.72;100.00
10145;BME280;5113;41.822;23.564;2023-04-03T12:08:44;-11199.56;;;9.59;100.00
10145;BME280;5113;41.822;23.564;2023-04-03T12:11:51;-11200.41;;;9.62;100.00
10145;BME280;5113;41.822;23.564;2023-04-03T12:15:22;-11191.84;;;9.31;100.00
10145;BME280;5113;41.822;23.564;2023-04-03T12:18:58;-11195.22;;;9.43;100.00
10145;BME280;5113;41.822;23.564;2023-04-03T12:22:13;-11204.06;;;9.75;100.00
10145;BME280;5113;41.822;23.564;2023-04-03T12:25:47;-11206.59;;;9.84;100.00
10145;BME280;5113;41.822;23.564;2023-04-03T12:28:55;-11202.81;;;9.71;100.00
10145;BME280;5113;41.822;23.564;2023-04-03T12:32:09;-11194.38;;;9.40;100.00
10145;BME280;5113;41.822;23.564;2023-04-03T12:35:26;-11170.34;;;8.53;100.00
10145;BME280;5113;41.822;23.564;2023-04-03T12:39:11;-11169.78;;;8.51;100.00
10145;BME280;5113;41.822;23.564;2023-04-03T12:42:38;-11161.47;;;8.21;100.00
10145;BME280;5113;41.822;23.564;2023-04-03T12:45:49;-11159.66;;;8.15;100.00
10145;BME280;5113;41.822;23.564;2023-04-03T12:48:59;-11155.56;;;8.00;100.00
10145;BME280;5113;41.822;23.564;2023-04-03T12:52:17;-11150.94;;;7.83;100.00
10145;BME280;5113;41.822;23.564;2023-04-03T12:55:25;-11167.53;;;8.43;100.00
10145;BME280;5113;41.822;23.564;2023-04-03T12:58:34;-11160.63;;;8.18;100.00
10145;BME280;5113;41.822;23.564;2023-04-03T13:01:40;-11164.72;;;8.33;100.00
10145;BME280;5113;41.822;23.564;2023-04-03T13:04:46;-11164.16;;;8.31;100.00
10145;BME280;5113;41.822;23.564;2023-04-03T13:07:59;-11168.22;;;8.46;100.00
10145;BME280;5113;41.822;23.564;2023-04-03T13:11:10;-11165.28;;;8.35;100.00
10145;BME280;5113;41.822;23.564;2023-04-03T13:14:20;-11171.75;;;8.58;100.00
10145;BME280;5113;41.822;23.564;2023-04-03T13:17:27;-11166.69;;;8.40;100.00
10145;BME280;5113;41.822;23.564;2023-04-03T13:20:35;-11169.63;;;8.51;100.00
10145;BME280;5113;41.822;23.564;2023-04-03T13:23:45;-11170.34;;;8.53;100.00
10145;BME280;5113;41.822;23.564;2023-04-03T13:26:57;-11170.19;;;8.53;100.00
10145;BME280;5113;41.822;23.564;2023-04-03T13:30:06;-11164.16;;;8.31;100.00
10145;BME280;5113;41.822;23.564;2023-04-03T13:33:21;-11164.16;;;8.31;100.00
10145;BME280;5113;41.822;23.564;2023-04-03T13:36:31;-11166.97;;;8.41;100.00
10145;BME280;5113;41.822;23.564;2023-04-03T13:39:39;-11163.88;;;8.30;100.00
10145;BME280;5113;41.822;23.564;2023-04-03T13:42:45;-11165.69;;;8.37;100.00
10145;BME280;5113;41.822;23.564;2023-04-03T13:45:58;-11157.69;;;8.08;100.00
10145;BME280;5113;41.822;23.564;2023-04-03T13:49:18;-11155.00;;;7.98;100.00
10145;BME280;5113;41.822;23.564;2023-04-03T13:52:27;-11166.69;;;8.40;100.00
10145;BME280;5113;41.822;23.564;2023-04-03T13:55:37;-11161.91;;;8.23;100.00
10145;BME280;5113;41.822;23.564;2023-04-03T13:59:03;-11160.34;;;8.17;100.00
10145;BME280;5113;41.822;23.564;2023-04-03T14:02:18;-11166.97;;;8.41;100.00
10145;BME280;5113;41.822;23.564;2023-04-03T14:05:25;-11154.72;;;7.97;100.00
10145;BME280;5113;41.822;23.564;2023-04-03T14:08:31;-11163.31;;;8.28;100.00
10145;BME280;5113;41.822;23.564;2023-04-03T14:11:50;-11164.16;;;8.31;100.00
10145;BME280;5113;41.822;23.564;2023-04-03T14:14:58;-11153.19;;;7.91;100.00
10145;BME280;5113;41.822;23.564;2023-04-03T14:18:10;-11158.81;;;8.12;100.00
10145;BME280;5113;41.822;23.564;2023-04-03T14:21:19;-11154.88;;;7.98;100.00
10145;BME280;5113;41.822;23.564;2023-04-03T14:24:26;-11162.19;;;8.24;100.00
10145;BME280;5113;41.822;23.564;2023-04-03T14:27:35;-11152.06;;;7.87;100.00
10145;BME280;5113;41.822;23.564;2023-04-03T14:30:42;-11163.59;;;8.29;100.00
10145;BME280;5113;41.822;23.564;2023-04-03T14:33:50;-11152.06;;;7.87;100.00
10145;BME280;5113;41.822;23.564;2023-04-03T14:36:56;-11158.66;;;8.11;100.00
10145;BME280;5113;41.822;23.564;2023-04-03T14:40:04;-11167.81;;;8.44;100.00
10145;BME280;5113;41.822;23.564;2023-04-03T14:43:12;-11159.94;;;8.16;100.00
10145;BME280;5113;41.822;23.564;2023-04-03T14:46:22;-11156.69;;;8.04;100.00
10145;BME280;5113;41.822;23.564;2023-04-03T14:49:37;-11159.66;;;8.15;100.00
10145;BME280;5113;41.822;23.564;2023-04-03T14:52:44;-11142.09;;;7.51;100.00
10145;BME280;5113;41.822;23.564;2023-04-03T14:55:51;-11151.78;;;7.86;100.00
10145;BME280;5113;41.822;23.564;2023-04-03T14:58:59;-11144.75;;;7.61;100.00
10145;BME280;5113;41.822;23.564;2023-04-03T15:02:28;-11148.69;;;7.75;100.00
10145;BME280;5113;41.822;23.564;2023-04-03T15:05:36;-11146.16;;;7.66;100.00
10145;BME280;5113;41.822;23.564;2023-04-03T15:08:43;-11147.41;;;7.71;100.00
10145;BME280;5113;41.822;23.564;2023-04-03T15:11:53;-11155.16;;;7.99;100.00
10145;BME280;5113;41.822;23.564;2023-04-03T15:15:00;-11153.75;;;7.93;100.00
10145;BME280;5113;41.822;23.564;2023-04-03T15:18:12;-11141.53;;;7.49;100.00
10145;BME280;5113;41.822;23.564;2023-04-03T15:21:21;-11143.22;;;7.55;100.00
10145;BME280;5113;41.822;23.564;2023-04-03T15:24:28;-11137.72;;;7.36;100.00
10145;BME280;5113;41.822;23.564;2023-04-03T15:27:34;-11138.16;;;7.37;100.00
10145;BME280;5113;41.822;23.564;2023-04-03T15:30:41;-11133.50;;;7.20;100.00
10145;BME280;5113;41.822;23.564;2023-04-03T15:33:47;-11144.75;;;7.61;100.00
10145;BME280;5113;41.822;23.564;2023-04-03T15:36:55;-11123.97;;;6.86;100.00
10145;BME280;5113;41.822;23.564;2023-04-03T15:40:02;-11122.69;;;6.81;100.00
10145;BME280;5113;41.822;23.564;2023-04-03T15:43:09;-11133.09;;;7.19;100.00
10145;BME280;5113;41.822;23.564;2023-04-03T15:46:15;-11126.22;;;6.94;100.00
10145;BME280;5113;41.822;23.564;2023-04-03T15:49:22;-11138.84;;;7.40;100.00
10145;BME280;5113;41.822;23.564;2023-04-03T15:52:29;-11130.69;;;7.10;100.00
10145;BME280;5113;41.822;23.564;2023-04-03T15:55:37;-11125.94;;;6.93;100.00
10145;BME280;5113;41.822;23.564;2023-04-03T15:58:44;-11129.16;;;7.05;100.00
10145;BME280;5113;41.822;23.564;2023-04-03T16:01:50;-11133.09;;;7.19;100.00
10145;BME280;5113;41.822;23.564;2023-04-03T16:04:57;-11126.63;;;6.95;100.00
10145;BME280;5113;41.822;23.564;2023-04-03T16:08:05;-11130.56;;;7.10;100.00
10145;BME280;5113;41.822;23.564;2023-04-03T16:11:12;-11129.16;;;7.05;100.00
10145;BME280;5113;41.822;23.564;2023-04-03T16:14:18;-11130.41;;;7.09;100.00
10145;BME280;5113;41.822;23.564;2023-04-03T16:17:26;-11128.88;;;7.04;100.00
10145;BME280;5113;41.822;23.564;2023-04-03T16:20:34;-11116.09;;;6.57;100.00
10145;BME280;5113;41.822;23.564;2023-04-03T16:23:42;-11123.97;;;6.86;100.00
10145;BME280;5113;41.822;23.564;2023-04-03T16:26:49;-11126.06;;;6.93;100.00
10145;BME280;5113;41.822;23.564;2023-04-03T16:29:55;-11122.84;;;6.82;100.00
10145;BME280;5113;41.822;23.564;2023-04-03T16:33:02;-11119.47;;;6.70;100.00
10145;BME280;5113;41.822;23.564;2023-04-03T16:36:09;-11116.94;;;6.60;100.00
10145;BME280;5113;41.822;23.564;2023-04-03T16:39:17;-11122.00;;;6.79;100.00
10145;BME280;5113;41.822;23.564;2023-04-03T16:42:23;-11114.56;;;6.52;100.00
10145;BME280;5113;41.822;23.564;2023-04-03T16:45:29;-11115.81;;;6.56;100.00